createdAt,value
2022-09-28T00:01:17.418Z,14.00
2022-09-28T00:03:46.512Z,14.00
2022-09-28T00:06:16.979Z,14.00
2022-09-28T00:08:44.298Z,13.90
2022-09-28T00:11:15.491Z,13.90
2022-09-28T00:13:43.854Z,14.00
2022-09-28T00:16:17.351Z,13.90
2022-09-28T00:18:45.570Z,14.00
2022-09-28T00:21:28.895Z,14.00
2022-09-28T00:24:14.878Z,14.00
2022-09-28T00:26:50.408Z,13.90
2022-09-28T00:29:28.361Z,13.90
2022-09-28T00:32:00.104Z,13.80
2022-09-28T00:34:31.875Z,13.90
2022-09-28T00:37:00.640Z,13.90
2022-09-28T00:39:27.892Z,13.90
2022-09-28T00:41:54.996Z,13.90
2022-09-28T00:44:33.952Z,13.90
2022-09-28T00:47:41.584Z,13.90
2022-09-28T00:50:31.132Z,13.90
2022-09-28T00:53:16.010Z,13.90
2022-09-28T00:55:52.026Z,14.00
2022-09-28T00:58:30.824Z,14.00
2022-09-28T01:00:59.640Z,13.90
2022-09-28T01:03:28.897Z,13.90
2022-09-28T01:05:59.581Z,13.90
2022-09-28T01:08:29.310Z,13.90
2022-09-28T01:10:59.168Z,13.90
2022-09-28T01:13:27.167Z,13.90
2022-09-28T01:16:12.814Z,13.80
2022-09-28T01:19:03.991Z,13.90
2022-09-28T01:21:51.669Z,13.80
2022-09-28T01:24:46.528Z,13.80
2022-09-28T01:27:26.873Z,13.80
2022-09-28T01:30:10.569Z,13.70
2022-09-28T01:33:04.130Z,13.70
2022-09-28T01:35:45.777Z,13.60
2022-09-28T01:38:23.564Z,13.60
2022-09-28T01:40:52.185Z,13.60
2022-09-28T01:43:26.955Z,13.60
2022-09-28T01:46:05.762Z,13.60
2022-09-28T01:48:46.999Z,13.60
2022-09-28T01:51:28.268Z,13.60
2022-09-28T01:54:05.768Z,13.70
2022-09-28T01:56:58.587Z,13.70
2022-09-28T01:59:30.794Z,13.70
2022-09-28T02:02:14.830Z,13.70
2022-09-28T02:04:50.840Z,13.80
2022-09-28T02:07:26.163Z,13.80
2022-09-28T02:10:00.670Z,13.90
2022-09-28T02:12:40.290Z,13.80
2022-09-28T02:15:55.257Z,13.80
2022-09-28T02:18:22.192Z,13.90
2022-09-28T02:21:01.018Z,13.90
2022-09-28T02:23:33.693Z,13.90
2022-09-28T02:26:10.672Z,13.90
2022-09-28T02:28:37.879Z,13.90
2022-09-28T02:31:04.912Z,13.90
2022-09-28T02:33:38.324Z,13.90
2022-09-28T02:36:05.908Z,13.80
2022-09-28T02:38:33.215Z,13.80
2022-09-28T02:41:16.514Z,13.80
2022-09-28T02:44:18.409Z,13.70
2022-09-28T02:47:04.850Z,13.60
2022-09-28T02:49:49.581Z,13.60
2022-09-28T02:52:49.003Z,13.60
2022-09-28T02:55:48.588Z,13.60
2022-09-28T02:59:03.439Z,13.60
2022-09-28T03:02:17.270Z,13.60
2022-09-28T03:05:21.856Z,13.60
2022-09-28T03:08:39.761Z,13.50
2022-09-28T03:11:27.668Z,13.50
2022-09-28T03:14:14.084Z,13.60
2022-09-28T03:19:42.062Z,13.60
2022-09-28T03:22:16.652Z,13.60
2022-09-28T03:24:46.272Z,13.70
2022-09-28T03:27:29.726Z,13.60
2022-09-28T03:30:06.932Z,13.60
2022-09-28T03:32:41.203Z,13.60
2022-09-28T03:35:23.527Z,13.60
2022-09-28T03:38:02.195Z,13.60
2022-09-28T03:40:31.628Z,13.70
2022-09-28T03:43:05.219Z,13.60
2022-09-28T03:45:37.550Z,13.60
2022-09-28T03:48:25.034Z,13.50
2022-09-28T03:51:12.071Z,13.60
2022-09-28T03:53:48.533Z,13.50
2022-09-28T03:56:33.193Z,13.20
2022-09-28T03:59:10.237Z,13.20
2022-09-28T04:01:48.657Z,12.90
2022-09-28T04:04:37.545Z,12.90
2022-09-28T04:07:22.452Z,12.80
2022-09-28T04:09:54.608Z,12.80
2022-09-28T04:12:32.369Z,12.80
2022-09-28T04:15:17.247Z,12.80
2022-09-28T04:18:10.015Z,12.70
2022-09-28T04:20:50.044Z,12.70
2022-09-28T04:23:32.686Z,12.70
2022-09-28T04:26:05.938Z,12.60
2022-09-28T04:29:06.623Z,12.60
2022-09-28T04:31:55.099Z,12.60
2022-09-28T04:34:35.738Z,12.70
2022-09-28T04:37:17.951Z,12.60
2022-09-28T04:39:48.704Z,12.60
2022-09-28T04:42:27.944Z,12.60
2022-09-28T04:45:08.189Z,12.50
2022-09-28T04:47:48.492Z,12.40
2022-09-28T04:50:22.875Z,12.30
2022-09-28T04:55:37.383Z,12.20
2022-09-28T04:58:07.415Z,12.20
2022-09-28T05:00:37.280Z,12.30
2022-09-28T05:03:16.085Z,12.30
2022-09-28T05:05:59.962Z,12.30
2022-09-28T05:08:38.095Z,12.30
2022-09-28T05:11:21.504Z,12.30
2022-09-28T05:13:53.359Z,12.30
2022-09-28T05:16:34.123Z,12.30
2022-09-28T05:19:06.549Z,12.30
2022-09-28T05:21:36.232Z,12.30
2022-09-28T05:24:07.843Z,12.30
2022-09-28T05:26:56.327Z,12.30
2022-09-28T05:29:32.480Z,12.20
2022-09-28T05:32:10.759Z,12.10
2022-09-28T05:34:40.449Z,12.10
2022-09-28T05:37:14.913Z,12.10
2022-09-28T05:39:52.814Z,12.10
2022-09-28T05:42:21.776Z,12.20
2022-09-28T05:44:49.024Z,12.10
2022-09-28T05:47:16.284Z,12.10
2022-09-28T05:49:43.784Z,12.10
2022-09-28T05:52:10.927Z,12.10
2022-09-28T05:54:40.270Z,12.10
2022-09-28T05:57:09.987Z,12.20
2022-09-28T05:59:40.205Z,12.20
2022-09-28T06:02:13.324Z,12.20
2022-09-28T06:04:43.084Z,12.20
2022-09-28T06:07:12.733Z,12.10
2022-09-28T06:09:39.831Z,12.10
2022-09-28T06:12:09.711Z,12.10
2022-09-28T06:14:39.056Z,12.20
2022-09-28T06:17:06.235Z,12.20
2022-09-28T06:19:35.563Z,12.10
2022-09-28T06:22:02.798Z,12.00
2022-09-28T06:24:29.877Z,12.10
2022-09-28T06:26:57.046Z,12.10
2022-09-28T06:29:24.161Z,12.10
2022-09-28T06:31:54.326Z,12.20
2022-09-28T06:34:21.594Z,12.10
2022-09-28T06:36:49.026Z,12.10
2022-09-28T06:39:16.769Z,12.00
2022-09-28T06:41:47.121Z,12.10
2022-09-28T06:44:16.934Z,12.10
2022-09-28T06:46:43.953Z,12.00
2022-09-28T06:49:10.890Z,11.90
2022-09-28T07:04:01.946Z,11.90
2022-09-28T07:06:31.479Z,12.60
2022-09-28T07:09:22.689Z,12.40
2022-09-28T07:11:49.544Z,12.20
2022-09-28T07:14:32.302Z,12.20
2022-09-28T07:17:13.150Z,12.10
2022-09-28T07:19:40.874Z,12.00
2022-09-28T07:22:07.957Z,12.00
2022-09-28T07:24:37.524Z,12.00
2022-09-28T07:27:05.614Z,12.00
2022-09-28T07:29:32.540Z,12.00
2022-09-28T07:31:59.750Z,12.10
2022-09-28T07:34:26.768Z,12.10
2022-09-28T07:36:58.812Z,12.00
2022-09-28T07:39:25.753Z,12.00
2022-09-28T07:41:59.683Z,12.10
2022-09-28T07:44:29.822Z,12.20
2022-09-28T07:46:56.718Z,12.20
2022-09-28T07:49:23.749Z,12.10
2022-09-28T07:51:50.646Z,12.00
2022-09-28T07:54:17.920Z,11.90
2022-09-28T07:56:45.908Z,11.80
2022-09-28T07:59:17.562Z,11.70
2022-09-28T08:01:44.702Z,11.80
2022-09-28T08:04:11.788Z,11.80
2022-09-28T08:06:40.474Z,11.80
2022-09-28T08:09:07.386Z,11.90
2022-09-28T08:11:34.285Z,11.90
2022-09-28T08:14:02.204Z,11.80
2022-09-28T08:16:30.196Z,11.90
2022-09-28T08:18:57.206Z,11.90
2022-09-28T08:21:42.862Z,12.00
2022-09-28T08:24:09.760Z,12.10
2022-09-28T08:26:36.659Z,12.00
2022-09-28T08:29:06.504Z,11.90
2022-09-28T08:31:33.420Z,12.00
2022-09-28T08:34:00.544Z,12.20
2022-09-28T08:36:28.342Z,12.20
2022-09-28T08:38:56.172Z,12.20
2022-09-28T08:41:39.116Z,12.10
2022-09-28T08:44:24.243Z,12.00
2022-09-28T08:47:06.640Z,12.10
2022-09-28T08:49:44.069Z,12.10
2022-09-28T08:52:16.357Z,12.20
2022-09-28T08:54:54.526Z,12.10
2022-09-28T08:57:46.085Z,12.10
2022-09-28T09:00:39.716Z,12.20
2022-09-28T09:03:12.167Z,12.20
2022-09-28T09:06:17.651Z,12.20
2022-09-28T09:09:10.903Z,12.20
2022-09-28T09:12:12.706Z,12.10
2022-09-28T09:15:11.403Z,12.10
2022-09-28T09:17:43.184Z,12.30
2022-09-28T09:20:30.075Z,12.00
2022-09-28T09:23:01.250Z,12.10
2022-09-28T09:25:40.223Z,12.10
2022-09-28T09:28:28.596Z,12.20
2022-09-28T09:31:09.007Z,12.20
2022-09-28T09:34:13.797Z,12.20
2022-09-28T09:36:53.488Z,12.20
2022-09-28T09:40:00.025Z,12.40
2022-09-28T09:42:56.263Z,12.50
2022-09-28T09:45:51.468Z,12.60
2022-09-28T09:48:29.944Z,12.90
2022-09-28T09:51:19.607Z,13.20
2022-09-28T09:54:03.952Z,13.40
2022-09-28T09:56:49.981Z,13.50
2022-09-28T09:59:45.288Z,13.60
2022-09-28T10:02:33.347Z,13.80
2022-09-28T10:05:21.421Z,13.90
2022-09-28T10:07:52.989Z,14.20
2022-09-28T10:11:20.618Z,14.20
2022-09-28T10:13:49.275Z,14.20
2022-09-28T10:16:19.859Z,14.10
2022-09-28T10:18:49.549Z,14.40
2022-09-28T10:21:21.593Z,14.70
2022-09-28T10:23:56.712Z,14.60
2022-09-28T10:26:40.481Z,14.50
2022-09-28T10:29:26.814Z,14.50
2022-09-28T10:31:54.700Z,14.40
2022-09-28T10:34:31.154Z,14.30
2022-09-28T10:37:11.091Z,14.20
2022-09-28T10:39:56.067Z,14.50
2022-09-28T10:42:30.178Z,14.40
2022-09-28T10:45:17.505Z,14.20
2022-09-28T10:47:45.280Z,14.30
2022-09-28T10:50:27.474Z,14.40
2022-09-28T10:53:09.962Z,14.40
2022-09-28T10:55:37.048Z,14.20
2022-09-28T10:58:41.948Z,14.00
2022-09-28T11:01:20.653Z,13.90
2022-09-28T11:03:59.829Z,13.80
2022-09-28T11:06:36.518Z,14.00
2022-09-28T11:09:20.626Z,14.30
2022-09-28T11:11:47.600Z,14.40
2022-09-28T11:14:39.746Z,14.60
2022-09-28T11:17:47.500Z,14.50
2022-09-28T11:20:28.291Z,14.60
2022-09-28T11:23:02.648Z,14.80
2022-09-28T11:25:31.337Z,14.80
2022-09-28T11:28:04.414Z,15.10
2022-09-28T11:30:45.556Z,15.10
2022-09-28T11:33:20.194Z,15.10
2022-09-28T11:36:16.631Z,15.00
2022-09-28T11:39:08.809Z,14.70
2022-09-28T11:42:06.100Z,14.70
2022-09-28T11:44:44.737Z,14.70
2022-09-28T11:47:39.922Z,14.60
2022-09-28T11:50:29.535Z,14.60
2022-09-28T11:53:17.817Z,14.60
2022-09-28T11:56:29.784Z,14.70
2022-09-28T11:59:06.417Z,14.80
2022-09-28T12:01:44.286Z,14.80
2022-09-28T12:04:40.343Z,15.00
2022-09-28T12:07:18.107Z,15.20
2022-09-28T12:10:16.563Z,15.30
2022-09-28T12:13:02.244Z,15.50
2022-09-28T12:16:15.095Z,15.60
2022-09-28T12:18:56.065Z,15.70
2022-09-28T12:21:42.510Z,15.60
2022-09-28T12:24:17.022Z,15.70
2022-09-28T12:27:38.593Z,15.60
2022-09-28T12:30:16.583Z,15.60
2022-09-28T12:32:44.968Z,15.70
2022-09-28T12:35:19.784Z,15.70
2022-09-28T12:38:34.040Z,15.70
2022-09-28T12:41:13.075Z,15.60
2022-09-28T12:44:10.654Z,15.80
2022-09-28T12:47:27.175Z,16.00
2022-09-28T12:50:39.117Z,16.10
2022-09-28T12:53:53.885Z,16.00
2022-09-28T12:57:30.904Z,15.90
2022-09-28T13:00:25.247Z,15.90
2022-09-28T13:03:15.968Z,15.80
2022-09-28T13:05:57.992Z,15.90
2022-09-28T13:08:48.641Z,16.00
2022-09-28T13:11:42.168Z,16.10
2022-09-28T13:14:44.968Z,16.10
2022-09-28T13:17:23.621Z,16.20
2022-09-28T13:20:17.564Z,16.00
2022-09-28T13:23:11.264Z,15.80
2022-09-28T13:25:49.998Z,15.80
2022-09-28T13:28:26.186Z,15.80
2022-09-28T13:33:38.315Z,15.90
2022-09-28T13:36:25.811Z,15.90
2022-09-28T13:38:54.343Z,15.90
2022-09-28T13:41:36.636Z,15.80
2022-09-28T13:44:41.689Z,15.70
2022-09-28T13:47:54.614Z,15.60
2022-09-28T13:51:09.223Z,15.50
2022-09-28T13:53:44.814Z,15.40
2022-09-28T13:56:24.506Z,15.40
2022-09-28T13:59:16.488Z,15.30
2022-09-28T14:02:09.616Z,15.30
2022-09-28T14:04:57.568Z,15.30
2022-09-28T14:07:57.328Z,15.30
2022-09-28T14:10:48.799Z,15.30
2022-09-28T14:13:41.233Z,15.40
2022-09-28T14:16:27.536Z,15.40
2022-09-28T14:19:03.026Z,15.50
2022-09-28T14:22:03.476Z,15.40
2022-09-28T14:25:18.293Z,15.50
2022-09-28T14:28:28.236Z,15.40
2022-09-28T14:30:58.202Z,15.50
2022-09-28T14:33:31.875Z,15.60
2022-09-28T14:36:07.214Z,15.60
2022-09-28T14:39:08.452Z,15.70
2022-09-28T14:41:41.806Z,15.50
2022-09-28T14:44:10.803Z,15.50
2022-09-28T14:46:43.381Z,15.50
2022-09-28T14:49:24.923Z,15.60
2022-09-28T14:51:55.897Z,15.60
2022-09-28T14:54:37.672Z,15.50
2022-09-28T14:57:08.073Z,15.50
2022-09-28T14:59:43.562Z,15.60
2022-09-28T15:02:31.158Z,15.60
2022-09-28T15:05:16.119Z,15.60
2022-09-28T15:07:52.984Z,15.60
2022-09-28T15:10:37.546Z,15.60
2022-09-28T15:13:16.560Z,15.70
2022-09-28T15:15:52.775Z,15.70
2022-09-28T15:18:43.626Z,15.70
2022-09-28T15:21:12.418Z,15.70
2022-09-28T15:23:44.236Z,15.60
2022-09-28T15:26:32.305Z,15.50
2022-09-28T15:29:03.334Z,15.50
2022-09-28T15:31:35.791Z,15.50
2022-09-28T15:34:21.613Z,15.50
2022-09-28T15:36:49.949Z,15.50
2022-09-28T15:39:31.315Z,15.50
2022-09-28T15:42:00.041Z,15.50
2022-09-28T15:44:36.207Z,15.50
2022-09-28T15:47:27.990Z,15.50
2022-09-28T15:50:01.269Z,15.50
2022-09-28T15:53:01.123Z,15.50
2022-09-28T15:55:43.862Z,15.60
2022-09-28T15:58:22.949Z,15.60
2022-09-28T16:01:12.204Z,15.60
2022-09-28T16:03:39.189Z,15.60
2022-09-28T16:06:09.931Z,15.60
2022-09-28T16:08:38.412Z,15.50
2022-09-28T16:11:15.244Z,15.50
2022-09-28T16:14:17.004Z,15.50
2022-09-28T16:16:48.862Z,15.50
2022-09-28T16:19:29.713Z,15.40
2022-09-28T16:22:03.981Z,15.40
2022-09-28T16:24:41.005Z,15.40
2022-09-28T16:27:38.893Z,15.30
2022-09-28T16:30:29.710Z,15.20
2022-09-28T16:33:08.633Z,15.20
2022-09-28T16:35:35.488Z,15.20
2022-09-28T16:38:09.122Z,15.20
2022-09-28T16:40:50.569Z,15.30
2022-09-28T16:43:34.982Z,15.30
2022-09-28T16:46:13.290Z,15.30
2022-09-28T16:48:49.282Z,15.30
2022-09-28T16:51:21.705Z,15.30
2022-09-28T16:54:07.878Z,15.20
2022-09-28T16:56:36.629Z,15.20
2022-09-28T16:59:04.493Z,15.20
2022-09-28T17:01:31.830Z,15.10
2022-09-28T17:03:58.898Z,15.10
2022-09-28T17:06:27.036Z,15.00
2022-09-28T17:08:59.416Z,15.00
2022-09-28T17:11:26.487Z,14.90
2022-09-28T17:13:56.866Z,14.90
2022-09-28T17:19:23.861Z,14.70
2022-09-28T17:21:52.751Z,14.70
2022-09-28T17:24:20.474Z,14.60
2022-09-28T17:26:52.097Z,14.50
2022-09-28T17:29:19.531Z,14.50
2022-09-28T17:31:47.978Z,14.50
2022-09-28T17:34:16.655Z,14.30
2022-09-28T17:36:45.068Z,14.30
2022-09-28T17:39:19.811Z,14.20
2022-09-28T17:41:46.901Z,14.10
2022-09-28T17:44:16.548Z,14.00
2022-09-28T17:46:48.665Z,14.00
2022-09-28T17:49:16.977Z,13.90
2022-09-28T17:51:44.103Z,13.80
2022-09-28T17:54:12.929Z,13.80
2022-09-28T17:56:40.104Z,13.70
2022-09-28T17:59:12.875Z,13.70
2022-09-28T18:01:41.083Z,13.70
2022-09-28T18:04:19.191Z,13.70
2022-09-28T18:06:55.219Z,13.70
2022-09-28T18:09:25.300Z,13.60
2022-09-28T18:12:03.313Z,13.60
2022-09-28T18:14:36.090Z,13.60
2022-09-28T18:17:03.412Z,13.60
2022-09-28T18:19:32.395Z,13.50
2022-09-28T18:22:01.330Z,13.50
2022-09-28T18:24:28.794Z,13.50
2022-09-28T18:26:55.832Z,13.50
2022-09-28T18:29:22.893Z,13.50
2022-09-28T18:31:50.387Z,13.50
2022-09-28T18:34:17.923Z,13.40
2022-09-28T18:36:45.544Z,13.30
2022-09-28T18:39:12.716Z,13.30
2022-09-28T18:41:39.916Z,13.30
2022-09-28T18:44:06.879Z,13.30
2022-09-28T18:46:37.039Z,13.20
2022-09-28T18:49:05.375Z,13.20
2022-09-28T18:51:32.634Z,13.20
2022-09-28T18:54:07.693Z,13.20
2022-09-28T18:56:37.389Z,13.10
2022-09-28T18:59:11.735Z,13.10
2022-09-28T19:01:41.657Z,13.10
2022-09-28T19:04:10.800Z,13.00
2022-09-28T19:06:42.972Z,13.00
2022-09-28T19:09:10.456Z,13.00
2022-09-28T19:11:37.478Z,13.00
2022-09-28T19:14:06.415Z,13.10
2022-09-28T19:16:36.138Z,13.10
2022-09-28T19:19:03.527Z,13.00
2022-09-28T19:21:31.970Z,13.00
2022-09-28T19:24:03.436Z,13.00
2022-09-28T19:26:32.817Z,13.00
2022-09-28T19:29:00.269Z,13.00
2022-09-28T19:31:29.091Z,12.90
2022-09-28T19:33:56.552Z,13.00
2022-09-28T19:36:26.166Z,13.00
2022-09-28T19:38:53.569Z,12.90
2022-09-28T19:41:43.940Z,12.90
2022-09-28T19:44:27.409Z,12.80
2022-09-28T19:47:08.251Z,12.60
2022-09-28T19:49:38.980Z,12.50
2022-09-28T19:52:15.932Z,12.50
2022-09-28T19:54:56.599Z,12.40
2022-09-28T19:57:30.643Z,12.30
2022-09-28T20:00:02.123Z,12.30
2022-09-28T20:02:29.913Z,12.10
2022-09-28T20:04:56.910Z,12.00
2022-09-28T20:07:23.958Z,11.80
2022-09-28T20:09:51.656Z,11.60
2022-09-28T20:12:18.746Z,11.50
2022-09-28T20:14:45.724Z,11.30
2022-09-28T20:17:12.863Z,11.30
2022-09-28T20:19:39.773Z,11.30
2022-09-28T20:22:09.773Z,11.20
2022-09-28T20:24:36.679Z,11.20
2022-09-28T20:27:03.663Z,11.20
2022-09-28T20:29:33.354Z,11.20
2022-09-28T20:32:01.222Z,11.20
2022-09-28T20:34:28.202Z,11.20
2022-09-28T20:36:55.504Z,11.20
2022-09-28T20:39:25.178Z,11.30
2022-09-28T20:41:52.079Z,11.40
2022-09-28T20:44:19.131Z,11.50
2022-09-28T20:46:51.252Z,11.50
2022-09-28T20:49:18.190Z,11.60
2022-09-28T20:51:45.152Z,11.70
2022-09-28T20:54:12.175Z,11.70
2022-09-28T20:56:39.320Z,11.80
2022-09-28T20:59:12.058Z,11.90
2022-09-28T21:01:39.884Z,11.90
2022-09-28T21:04:09.822Z,11.80
2022-09-28T21:06:40.403Z,11.90
2022-09-28T21:09:09.572Z,12.00
2022-09-28T21:11:37.620Z,12.00
2022-09-28T21:14:08.629Z,12.10
2022-09-28T21:16:36.059Z,12.00
2022-09-28T21:19:04.281Z,12.00
2022-09-28T21:21:31.443Z,11.90
2022-09-28T21:23:59.011Z,11.90
2022-09-28T21:26:29.067Z,12.00
2022-09-28T21:29:03.427Z,12.00
2022-09-28T21:31:45.648Z,12.00
2022-09-28T21:34:19.332Z,11.90
2022-09-28T21:36:51.461Z,11.80
2022-09-28T21:39:19.410Z,11.80
2022-09-28T21:41:46.875Z,11.70
2022-09-28T21:44:13.854Z,11.70
2022-09-28T21:46:42.085Z,11.50
2022-09-28T21:49:10.842Z,11.40
2022-09-28T21:51:38.087Z,11.30
2022-09-28T21:54:05.508Z,11.30
2022-09-28T21:56:32.489Z,11.30
2022-09-28T21:59:01.255Z,11.40
2022-09-28T22:01:29.337Z,11.40
2022-09-28T22:03:57.234Z,11.50
2022-09-28T22:06:30.210Z,11.60
2022-09-28T22:08:57.668Z,11.60
2022-09-28T22:11:27.851Z,11.50
2022-09-28T22:14:00.346Z,11.50
2022-09-28T22:16:30.784Z,11.60
2022-09-28T22:18:59.064Z,11.60
2022-09-28T22:21:32.669Z,11.50
2022-09-28T22:24:06.436Z,11.40
2022-09-28T22:26:36.717Z,11.40
2022-09-28T22:29:09.520Z,11.50
2022-09-28T22:31:39.881Z,11.50
2022-09-28T22:34:08.392Z,11.60
2022-09-28T22:36:37.504Z,11.70
2022-09-28T22:39:04.953Z,11.80
2022-09-28T22:41:32.360Z,11.80
2022-09-28T22:43:59.917Z,11.90
2022-09-28T22:46:29.397Z,11.90
2022-09-28T22:48:59.824Z,11.90
2022-09-28T22:51:29.843Z,12.00
2022-09-28T22:53:57.628Z,12.00
2022-09-28T22:56:25.204Z,12.00
2022-09-28T22:58:52.137Z,12.00
2022-09-28T23:01:23.221Z,11.90
2022-09-28T23:03:52.392Z,11.90
2022-09-28T23:06:22.536Z,11.90
2022-09-28T23:08:51.348Z,11.90
2022-09-28T23:11:19.317Z,11.90
2022-09-28T23:13:53.983Z,11.90
2022-09-28T23:16:23.324Z,11.90
2022-09-28T23:18:50.455Z,11.80
2022-09-28T23:21:21.490Z,11.80
2022-09-28T23:24:01.484Z,11.80
2022-09-28T23:26:31.922Z,11.80
2022-09-28T23:28:59.895Z,11.80
2022-09-28T23:31:32.634Z,11.80
2022-09-28T23:34:01.701Z,11.80
2022-09-28T23:36:29.281Z,11.80
2022-09-28T23:38:56.420Z,11.80
2022-09-28T23:41:23.494Z,11.80
2022-09-28T23:43:50.517Z,11.70
2022-09-28T23:46:20.931Z,11.50
2022-09-28T23:48:49.515Z,11.50
2022-09-28T23:51:16.895Z,11.40
2022-09-28T23:53:43.992Z,11.30
2022-09-28T23:56:11.480Z,11.30
2022-09-28T23:58:38.592Z,11.30
